sensor_id;sensor_type;location;lat;lon;timestamp;P1;durP1;ratioP1;P2;durP2;ratioP2
61709;SDS011;47633;51.494;5.386;2022-07-23T00:02:17;2.00;;;1.10;;
61709;SDS011;47633;51.494;5.386;2022-07-23T00:04:42;2.80;;;1.50;;
61709;SDS011;47633;51.494;5.386;2022-07-23T00:07:07;3.30;;;1.50;;
61709;SDS011;47633;51.494;5.386;2022-07-23T00:09:32;2.75;;;1.50;;
61709;SDS011;47633;51.494;5.386;2022-07-23T00:11:58;3.15;;;1.67;;
61709;SDS011;47633;51.494;5.386;2022-07-23T00:14:23;2.70;;;1.30;;
61709;SDS011;47633;51.494;5.386;2022-07-23T00:16:49;3.13;;;1.50;;
61709;SDS011;47633;51.494;5.386;2022-07-23T00:19:14;3.50;;;1.50;;
61709;SDS011;47633;51.494;5.386;2022-07-23T00:21:40;3.53;;;1.70;;
61709;SDS011;47633;51.494;5.386;2022-07-23T00:24:08;2.05;;;1.17;;
61709;SDS011;47633;51.494;5.386;2022-07-23T00:26:36;3.65;;;1.50;;
61709;SDS011;47633;51.494;5.386;2022-07-23T00:29:01;3.47;;;1.50;;
61709;SDS011;47633;51.494;5.386;2022-07-23T00:31:26;4.47;;;1.50;;
61709;SDS011;47633;51.494;5.386;2022-07-23T00:33:52;3.20;;;1.30;;
61709;SDS011;47633;51.494;5.386;2022-07-23T00:36:21;2.92;;;1.40;;
61709;SDS011;47633;51.494;5.386;2022-07-23T00:38:48;3.83;;;1.40;;
61709;SDS011;47633;51.494;5.386;2022-07-23T00:41:13;3.28;;;1.45;;
61709;SDS011;47633;51.494;5.386;2022-07-23T00:43:42;3.95;;;1.60;;
61709;SDS011;47633;51.494;5.386;2022-07-23T00:46:07;2.97;;;1.48;;
61709;SDS011;47633;51.494;5.386;2022-07-23T00:48:35;3.03;;;1.42;;
61709;SDS011;47633;51.494;5.386;2022-07-23T00:51:01;2.92;;;1.52;;
61709;SDS011;47633;51.494;5.386;2022-07-23T00:53:26;3.40;;;1.30;;
61709;SDS011;47633;51.494;5.386;2022-07-23T00:55:52;3.80;;;1.70;;
61709;SDS011;47633;51.494;5.386;2022-07-23T00:58:18;4.78;;;1.25;;
61709;SDS011;47633;51.494;5.386;2022-07-23T01:00:44;2.97;;;1.20;;
61709;SDS011;47633;51.494;5.386;2022-07-23T01:03:10;3.40;;;1.48;;
61709;SDS011;47633;51.494;5.386;2022-07-23T01:05:35;2.25;;;1.13;;
61709;SDS011;47633;51.494;5.386;2022-07-23T01:08:00;3.05;;;1.40;;
61709;SDS011;47633;51.494;5.386;2022-07-23T01:10:26;3.25;;;1.48;;
61709;SDS011;47633;51.494;5.386;2022-07-23T01:13:01;3.13;;;1.33;;
61709;SDS011;47633;51.494;5.386;2022-07-23T01:15:29;2.47;;;1.20;;
61709;SDS011;47633;51.494;5.386;2022-07-23T01:17:55;2.60;;;1.25;;
61709;SDS011;47633;51.494;5.386;2022-07-23T01:20:21;2.72;;;1.40;;
61709;SDS011;47633;51.494;5.386;2022-07-23T01:22:46;2.80;;;1.38;;
61709;SDS011;47633;51.494;5.386;2022-07-23T01:25:12;3.08;;;1.50;;
61709;SDS011;47633;51.494;5.386;2022-07-23T01:27:38;3.88;;;1.67;;
61709;SDS011;47633;51.494;5.386;2022-07-23T01:30:03;2.65;;;1.40;;
61709;SDS011;47633;51.494;5.386;2022-07-23T01:32:29;3.50;;;1.60;;
61709;SDS011;47633;51.494;5.386;2022-07-23T01:34:55;3.40;;;1.42;;
61709;SDS011;47633;51.494;5.386;2022-07-23T01:37:23;2.47;;;1.23;;
61709;SDS011;47633;51.494;5.386;2022-07-23T01:39:48;3.65;;;1.45;;
61709;SDS011;47633;51.494;5.386;2022-07-23T01:42:13;2.78;;;1.40;;
61709;SDS011;47633;51.494;5.386;2022-07-23T01:44:39;3.15;;;1.42;;
61709;SDS011;47633;51.494;5.386;2022-07-23T01:47:04;3.38;;;1.60;;
61709;SDS011;47633;51.494;5.386;2022-07-23T01:49:32;2.97;;;1.40;;
61709;SDS011;47633;51.494;5.386;2022-07-23T01:51:57;2.70;;;1.40;;
61709;SDS011;47633;51.494;5.386;2022-07-23T01:54:26;2.60;;;1.08;;
61709;SDS011;47633;51.494;5.386;2022-07-23T01:56:52;2.95;;;1.20;;
61709;SDS011;47633;51.494;5.386;2022-07-23T01:59:17;3.25;;;1.33;;
61709;SDS011;47633;51.494;5.386;2022-07-23T02:01:42;3.10;;;1.33;;
61709;SDS011;47633;51.494;5.386;2022-07-23T02:04:08;2.80;;;1.37;;
61709;SDS011;47633;51.494;5.386;2022-07-23T02:06:36;4.05;;;1.60;;
61709;SDS011;47633;51.494;5.386;2022-07-23T02:09:01;3.07;;;1.40;;
61709;SDS011;47633;51.494;5.386;2022-07-23T02:11:27;2.85;;;1.42;;
61709;SDS011;47633;51.494;5.386;2022-07-23T02:13:52;3.13;;;1.48;;
61709;SDS011;47633;51.494;5.386;2022-07-23T02:16:17;3.00;;;1.47;;
61709;SDS011;47633;51.494;5.386;2022-07-23T02:18:45;2.95;;;1.40;;
61709;SDS011;47633;51.494;5.386;2022-07-23T02:21:11;3.10;;;1.40;;
61709;SDS011;47633;51.494;5.386;2022-07-23T02:23:37;3.47;;;1.52;;
61709;SDS011;47633;51.494;5.386;2022-07-23T02:26:02;3.00;;;1.40;;
61709;SDS011;47633;51.494;5.386;2022-07-23T02:28:30;2.67;;;1.42;;
61709;SDS011;47633;51.494;5.386;2022-07-23T02:30:55;3.10;;;1.50;;
61709;SDS011;47633;51.494;5.386;2022-07-23T02:33:20;3.47;;;1.50;;
61709;SDS011;47633;51.494;5.386;2022-07-23T02:35:46;3.27;;;1.50;;
61709;SDS011;47633;51.494;5.386;2022-07-23T02:38:11;2.85;;;1.40;;
61709;SDS011;47633;51.494;5.386;2022-07-23T02:40:37;2.78;;;1.40;;
61709;SDS011;47633;51.494;5.386;2022-07-23T02:43:02;3.47;;;1.50;;
61709;SDS011;47633;51.494;5.386;2022-07-23T02:45:28;2.58;;;1.30;;
61709;SDS011;47633;51.494;5.386;2022-07-23T02:47:53;2.63;;;1.38;;
61709;SDS011;47633;51.494;5.386;2022-07-23T02:50:19;3.00;;;1.20;;
61709;SDS011;47633;51.494;5.386;2022-07-23T02:52:44;2.10;;;1.20;;
61709;SDS011;47633;51.494;5.386;2022-07-23T02:55:09;3.17;;;1.50;;
61709;SDS011;47633;51.494;5.386;2022-07-23T02:57:35;2.58;;;1.52;;
61709;SDS011;47633;51.494;5.386;2022-07-23T03:00:01;3.33;;;1.58;;
61709;SDS011;47633;51.494;5.386;2022-07-23T03:02:26;3.38;;;1.60;;
61709;SDS011;47633;51.494;5.386;2022-07-23T03:04:52;2.63;;;1.50;;
61709;SDS011;47633;51.494;5.386;2022-07-23T03:07:17;2.88;;;1.38;;
61709;SDS011;47633;51.494;5.386;2022-07-23T03:09:45;2.78;;;1.30;;
61709;SDS011;47633;51.494;5.386;2022-07-23T03:12:10;2.88;;;1.27;;
61709;SDS011;47633;51.494;5.386;2022-07-23T03:14:36;3.03;;;1.50;;
61709;SDS011;47633;51.494;5.386;2022-07-23T03:17:01;2.75;;;1.30;;
61709;SDS011;47633;51.494;5.386;2022-07-23T03:19:26;2.83;;;1.30;;
61709;SDS011;47633;51.494;5.386;2022-07-23T03:21:55;2.80;;;1.30;;
61709;SDS011;47633;51.494;5.386;2022-07-23T03:24:20;3.63;;;1.67;;
61709;SDS011;47633;51.494;5.386;2022-07-23T03:26:45;3.10;;;1.55;;
61709;SDS011;47633;51.494;5.386;2022-07-23T03:29:10;3.05;;;1.50;;
61709;SDS011;47633;51.494;5.386;2022-07-23T03:31:36;3.38;;;1.63;;
61709;SDS011;47633;51.494;5.386;2022-07-23T03:34:01;3.45;;;1.42;;
61709;SDS011;47633;51.494;5.386;2022-07-23T03:36:29;3.25;;;1.60;;
61709;SDS011;47633;51.494;5.386;2022-07-23T03:38:54;3.17;;;1.50;;
61709;SDS011;47633;51.494;5.386;2022-07-23T03:41:23;2.83;;;1.60;;
61709;SDS011;47633;51.494;5.386;2022-07-23T03:43:48;3.85;;;1.90;;
61709;SDS011;47633;51.494;5.386;2022-07-23T03:46:13;2.73;;;1.53;;
61709;SDS011;47633;51.494;5.386;2022-07-23T03:48:39;2.67;;;1.33;;
61709;SDS011;47633;51.494;5.386;2022-07-23T03:51:04;3.30;;;1.60;;
61709;SDS011;47633;51.494;5.386;2022-07-23T03:53:29;3.45;;;1.80;;
61709;SDS011;47633;51.494;5.386;2022-07-23T03:56:04;3.22;;;1.70;;
61709;SDS011;47633;51.494;5.386;2022-07-23T03:58:29;2.63;;;1.55;;
61709;SDS011;47633;51.494;5.386;2022-07-23T04:00:55;3.40;;;1.87;;
61709;SDS011;47633;51.494;5.386;2022-07-23T04:03:20;3.40;;;1.57;;
61709;SDS011;47633;51.494;5.386;2022-07-23T04:05:45;4.40;;;1.95;;
61709;SDS011;47633;51.494;5.386;2022-07-23T04:08:10;4.17;;;1.90;;
61709;SDS011;47633;51.494;5.386;2022-07-23T04:10:36;2.50;;;1.43;;
61709;SDS011;47633;51.494;5.386;2022-07-23T04:13:01;3.65;;;1.50;;
61709;SDS011;47633;51.494;5.386;2022-07-23T04:15:26;3.83;;;1.75;;
61709;SDS011;47633;51.494;5.386;2022-07-23T04:17:54;3.22;;;1.75;;
61709;SDS011;47633;51.494;5.386;2022-07-23T04:20:20;4.07;;;1.90;;
61709;SDS011;47633;51.494;5.386;2022-07-23T04:22:45;3.88;;;1.73;;
61709;SDS011;47633;51.494;5.386;2022-07-23T04:25:10;3.13;;;1.70;;
61709;SDS011;47633;51.494;5.386;2022-07-23T04:27:35;3.75;;;1.80;;
61709;SDS011;47633;51.494;5.386;2022-07-23T04:30:01;3.33;;;1.80;;
61709;SDS011;47633;51.494;5.386;2022-07-23T04:32:26;3.95;;;1.65;;
61709;SDS011;47633;51.494;5.386;2022-07-23T04:34:51;4.47;;;2.00;;
61709;SDS011;47633;51.494;5.386;2022-07-23T04:37:17;4.97;;;1.90;;
61709;SDS011;47633;51.494;5.386;2022-07-23T04:39:42;5.22;;;1.77;;
61709;SDS011;47633;51.494;5.386;2022-07-23T04:42:07;3.30;;;1.70;;
61709;SDS011;47633;51.494;5.386;2022-07-23T04:44:32;3.77;;;2.00;;
61709;SDS011;47633;51.494;5.386;2022-07-23T04:46:58;3.70;;;1.67;;
61709;SDS011;47633;51.494;5.386;2022-07-23T04:49:23;3.60;;;1.80;;
61709;SDS011;47633;51.494;5.386;2022-07-23T04:51:48;4.43;;;2.07;;
61709;SDS011;47633;51.494;5.386;2022-07-23T04:54:13;3.00;;;1.70;;
61709;SDS011;47633;51.494;5.386;2022-07-23T04:56:39;4.03;;;1.73;;
61709;SDS011;47633;51.494;5.386;2022-07-23T04:59:04;3.60;;;1.87;;
61709;SDS011;47633;51.494;5.386;2022-07-23T05:01:29;4.30;;;1.77;;
61709;SDS011;47633;51.494;5.386;2022-07-23T05:03:54;3.70;;;1.87;;
61709;SDS011;47633;51.494;5.386;2022-07-23T05:06:20;2.90;;;1.60;;
61709;SDS011;47633;51.494;5.386;2022-07-23T05:08:45;3.33;;;1.85;;
61709;SDS011;47633;51.494;5.386;2022-07-23T05:11:10;3.93;;;1.93;;
61709;SDS011;47633;51.494;5.386;2022-07-23T05:13:35;3.85;;;1.90;;
61709;SDS011;47633;51.494;5.386;2022-07-23T05:16:01;4.70;;;1.90;;
61709;SDS011;47633;51.494;5.386;2022-07-23T05:18:26;3.17;;;1.77;;
61709;SDS011;47633;51.494;5.386;2022-07-23T05:20:51;3.30;;;1.80;;
61709;SDS011;47633;51.494;5.386;2022-07-23T05:23:16;3.80;;;2.13;;
61709;SDS011;47633;51.494;5.386;2022-07-23T05:25:42;3.70;;;1.90;;
61709;SDS011;47633;51.494;5.386;2022-07-23T05:28:07;3.25;;;1.70;;
61709;SDS011;47633;51.494;5.386;2022-07-23T05:30:32;3.78;;;1.90;;
61709;SDS011;47633;51.494;5.386;2022-07-23T05:32:57;4.53;;;2.00;;
61709;SDS011;47633;51.494;5.386;2022-07-23T05:35:23;3.22;;;1.80;;
61709;SDS011;47633;51.494;5.386;2022-07-23T05:37:48;3.28;;;1.85;;
61709;SDS011;47633;51.494;5.386;2022-07-23T05:40:13;4.38;;;2.00;;
61709;SDS011;47633;51.494;5.386;2022-07-23T05:42:39;3.38;;;1.83;;
61709;SDS011;47633;51.494;5.386;2022-07-23T05:45:07;3.95;;;1.92;;
61709;SDS011;47633;51.494;5.386;2022-07-23T05:47:43;8.65;;;4.90;;
61709;SDS011;47633;51.494;5.386;2022-07-23T05:50:12;8.30;;;5.32;;
61709;SDS011;47633;51.494;5.386;2022-07-23T05:52:39;8.45;;;5.13;;
61709;SDS011;47633;51.494;5.386;2022-07-23T05:55:05;6.35;;;4.70;;
61709;SDS011;47633;51.494;5.386;2022-07-23T05:57:31;8.70;;;5.47;;
61709;SDS011;47633;51.494;5.386;2022-07-23T05:59:56;7.40;;;5.15;;
61709;SDS011;47633;51.494;5.386;2022-07-23T06:02:22;6.95;;;4.60;;
61709;SDS011;47633;51.494;5.386;2022-07-23T06:04:47;7.65;;;5.07;;
61709;SDS011;47633;51.494;5.386;2022-07-23T06:07:12;5.80;;;4.68;;
61709;SDS011;47633;51.494;5.386;2022-07-23T06:09:40;5.63;;;4.18;;
61709;SDS011;47633;51.494;5.386;2022-07-23T06:12:06;7.60;;;4.93;;
61709;SDS011;47633;51.494;5.386;2022-07-23T06:14:32;6.50;;;4.43;;
61709;SDS011;47633;51.494;5.386;2022-07-23T06:16:57;6.70;;;4.50;;
61709;SDS011;47633;51.494;5.386;2022-07-23T06:19:22;8.02;;;4.30;;
61709;SDS011;47633;51.494;5.386;2022-07-23T06:21:48;8.27;;;5.07;;
61709;SDS011;47633;51.494;5.386;2022-07-23T06:24:13;8.85;;;4.35;;
61709;SDS011;47633;51.494;5.386;2022-07-23T06:26:38;8.40;;;4.47;;
61709;SDS011;47633;51.494;5.386;2022-07-23T06:29:06;6.63;;;4.22;;
61709;SDS011;47633;51.494;5.386;2022-07-23T06:31:32;7.28;;;4.35;;
61709;SDS011;47633;51.494;5.386;2022-07-23T06:33:58;6.45;;;4.32;;
61709;SDS011;47633;51.494;5.386;2022-07-23T06:36:23;8.10;;;3.97;;
61709;SDS011;47633;51.494;5.386;2022-07-23T06:38:49;7.88;;;4.25;;
61709;SDS011;47633;51.494;5.386;2022-07-23T06:41:14;6.72;;;4.00;;
61709;SDS011;47633;51.494;5.386;2022-07-23T06:43:39;5.50;;;3.93;;
61709;SDS011;47633;51.494;5.386;2022-07-23T06:46:04;7.23;;;4.40;;
61709;SDS011;47633;51.494;5.386;2022-07-23T06:48:30;6.75;;;3.70;;
61709;SDS011;47633;51.494;5.386;2022-07-23T06:50:55;6.53;;;3.75;;
61709;SDS011;47633;51.494;5.386;2022-07-23T06:53:20;7.15;;;4.38;;
61709;SDS011;47633;51.494;5.386;2022-07-23T06:55:46;7.25;;;4.47;;
61709;SDS011;47633;51.494;5.386;2022-07-23T06:58:11;6.03;;;4.07;;
61709;SDS011;47633;51.494;5.386;2022-07-23T07:00:36;7.38;;;4.50;;
61709;SDS011;47633;51.494;5.386;2022-07-23T07:03:02;8.88;;;4.13;;
61709;SDS011;47633;51.494;5.386;2022-07-23T07:05:27;6.77;;;3.60;;
61709;SDS011;47633;51.494;5.386;2022-07-23T07:07:54;8.63;;;3.97;;
61709;SDS011;47633;51.494;5.386;2022-07-23T07:10:22;6.47;;;4.35;;
61709;SDS011;47633;51.494;5.386;2022-07-23T07:12:47;7.82;;;4.32;;
61709;SDS011;47633;51.494;5.386;2022-07-23T07:15:13;5.95;;;3.90;;
61709;SDS011;47633;51.494;5.386;2022-07-23T07:17:38;7.03;;;3.65;;
61709;SDS011;47633;51.494;5.386;2022-07-23T07:20:04;14.98;;;4.78;;
61709;SDS011;47633;51.494;5.386;2022-07-23T07:22:30;14.05;;;3.75;;
61709;SDS011;47633;51.494;5.386;2022-07-23T07:24:55;5.77;;;3.77;;
61709;SDS011;47633;51.494;5.386;2022-07-23T07:27:20;34.57;;;7.60;;
61709;SDS011;47633;51.494;5.386;2022-07-23T07:29:46;19.08;;;4.95;;
61709;SDS011;47633;51.494;5.386;2022-07-23T07:32:11;5.93;;;3.70;;
61709;SDS011;47633;51.494;5.386;2022-07-23T07:34:36;6.03;;;2.83;;
61709;SDS011;47633;51.494;5.386;2022-07-23T07:37:02;4.78;;;2.10;;
61709;SDS011;47633;51.494;5.386;2022-07-23T07:39:27;6.93;;;2.33;;
61709;SDS011;47633;51.494;5.386;2022-07-23T07:41:52;6.80;;;2.10;;
61709;SDS011;47633;51.494;5.386;2022-07-23T07:44:18;5.50;;;1.92;;
61709;SDS011;47633;51.494;5.386;2022-07-23T07:46:44;7.05;;;2.05;;
61709;SDS011;47633;51.494;5.386;2022-07-23T07:49:09;7.25;;;2.15;;
61709;SDS011;47633;51.494;5.386;2022-07-23T07:51:34;5.72;;;1.80;;
61709;SDS011;47633;51.494;5.386;2022-07-23T07:54:00;7.03;;;1.80;;
61709;SDS011;47633;51.494;5.386;2022-07-23T07:56:25;7.70;;;3.35;;
61709;SDS011;47633;51.494;5.386;2022-07-23T07:58:51;7.05;;;3.78;;
61709;SDS011;47633;51.494;5.386;2022-07-23T08:01:16;8.67;;;4.63;;
61709;SDS011;47633;51.494;5.386;2022-07-23T08:03:42;6.45;;;3.40;;
61709;SDS011;47633;51.494;5.386;2022-07-23T08:06:07;4.63;;;2.53;;
61709;SDS011;47633;51.494;5.386;2022-07-23T08:08:32;6.75;;;2.45;;
61709;SDS011;47633;51.494;5.386;2022-07-23T08:11:00;5.60;;;2.30;;
61709;SDS011;47633;51.494;5.386;2022-07-23T08:13:26;5.85;;;1.95;;
61709;SDS011;47633;51.494;5.386;2022-07-23T08:15:51;4.50;;;2.20;;
61709;SDS011;47633;51.494;5.386;2022-07-23T08:18:18;5.63;;;3.15;;
61709;SDS011;47633;51.494;5.386;2022-07-23T08:20:44;7.15;;;3.38;;
61709;SDS011;47633;51.494;5.386;2022-07-23T08:23:09;6.25;;;2.95;;
61709;SDS011;47633;51.494;5.386;2022-07-23T08:25:35;5.65;;;2.50;;
61709;SDS011;47633;51.494;5.386;2022-07-23T08:28:03;7.15;;;2.83;;
61709;SDS011;47633;51.494;5.386;2022-07-23T08:30:32;5.28;;;2.78;;
61709;SDS011;47633;51.494;5.386;2022-07-23T08:33:02;5.25;;;2.78;;
61709;SDS011;47633;51.494;5.386;2022-07-23T08:35:34;5.60;;;2.67;;
61709;SDS011;47633;51.494;5.386;2022-07-23T08:38:02;8.30;;;3.30;;
61709;SDS011;47633;51.494;5.386;2022-07-23T08:40:30;4.72;;;2.50;;
61709;SDS011;47633;51.494;5.386;2022-07-23T08:42:57;5.93;;;2.83;;
61709;SDS011;47633;51.494;5.386;2022-07-23T08:45:23;4.60;;;3.13;;
61709;SDS011;47633;51.494;5.386;2022-07-23T08:47:54;5.18;;;2.75;;
61709;SDS011;47633;51.494;5.386;2022-07-23T08:50:25;8.18;;;3.30;;
61709;SDS011;47633;51.494;5.386;2022-07-23T08:52:52;10.18;;;3.28;;
61709;SDS011;47633;51.494;5.386;2022-07-23T08:55:18;5.38;;;2.60;;
61709;SDS011;47633;51.494;5.386;2022-07-23T08:57:47;7.75;;;3.20;;
61709;SDS011;47633;51.494;5.386;2022-07-23T09:00:16;9.27;;;2.95;;
61709;SDS011;47633;51.494;5.386;2022-07-23T09:02:43;5.05;;;2.40;;
61709;SDS011;47633;51.494;5.386;2022-07-23T09:05:16;6.28;;;3.00;;
61709;SDS011;47633;51.494;5.386;2022-07-23T09:10:46;5.75;;;2.80;;
61709;SDS011;47633;51.494;5.386;2022-07-23T09:13:22;7.88;;;3.00;;
61709;SDS011;47633;51.494;5.386;2022-07-23T09:15:48;5.90;;;2.75;;
61709;SDS011;47633;51.494;5.386;2022-07-23T09:18:17;5.60;;;2.33;;
61709;SDS011;47633;51.494;5.386;2022-07-23T09:20:45;4.47;;;2.30;;
61709;SDS011;47633;51.494;5.386;2022-07-23T09:23:10;4.45;;;2.15;;
61709;SDS011;47633;51.494;5.386;2022-07-23T09:25:36;6.68;;;2.38;;
61709;SDS011;47633;51.494;5.386;2022-07-23T09:28:01;3.77;;;2.03;;
61709;SDS011;47633;51.494;5.386;2022-07-23T09:30:31;4.30;;;2.10;;
61709;SDS011;47633;51.494;5.386;2022-07-23T09:35:43;4.28;;;2.40;;
61709;SDS011;47633;51.494;5.386;2022-07-23T09:38:13;3.95;;;2.25;;
61709;SDS011;47633;51.494;5.386;2022-07-23T09:40:39;5.10;;;2.50;;
61709;SDS011;47633;51.494;5.386;2022-07-23T09:43:05;5.53;;;2.10;;
61709;SDS011;47633;51.494;5.386;2022-07-23T09:45:30;3.85;;;2.00;;
61709;SDS011;47633;51.494;5.386;2022-07-23T09:48:11;4.63;;;2.47;;
61709;SDS011;47633;51.494;5.386;2022-07-23T09:50:38;5.07;;;3.00;;
61709;SDS011;47633;51.494;5.386;2022-07-23T09:53:04;4.75;;;2.22;;
61709;SDS011;47633;51.494;5.386;2022-07-23T09:55:33;4.65;;;1.85;;
61709;SDS011;47633;51.494;5.386;2022-07-23T10:00:37;4.72;;;1.90;;
61709;SDS011;47633;51.494;5.386;2022-07-23T10:03:03;4.10;;;1.75;;
61709;SDS011;47633;51.494;5.386;2022-07-23T10:05:30;2.92;;;1.40;;
61709;SDS011;47633;51.494;5.386;2022-07-23T10:07:56;2.90;;;1.35;;
61709;SDS011;47633;51.494;5.386;2022-07-23T10:10:24;2.63;;;1.48;;
61709;SDS011;47633;51.494;5.386;2022-07-23T10:12:55;4.45;;;1.95;;
61709;SDS011;47633;51.494;5.386;2022-07-23T10:15:46;5.40;;;2.30;;
61709;SDS011;47633;51.494;5.386;2022-07-23T10:18:11;3.95;;;2.13;;
61709;SDS011;47633;51.494;5.386;2022-07-23T10:20:37;3.95;;;1.63;;
61709;SDS011;47633;51.494;5.386;2022-07-23T10:23:18;3.20;;;1.65;;
61709;SDS011;47633;51.494;5.386;2022-07-23T10:25:55;3.40;;;1.55;;
61709;SDS011;47633;51.494;5.386;2022-07-23T10:31:09;3.13;;;1.65;;
61709;SDS011;47633;51.494;5.386;2022-07-23T10:33:48;3.30;;;1.50;;
61709;SDS011;47633;51.494;5.386;2022-07-23T10:39:15;2.55;;;1.23;;
61709;SDS011;47633;51.494;5.386;2022-07-23T10:41:44;4.80;;;1.25;;
61709;SDS011;47633;51.494;5.386;2022-07-23T10:46:58;2.72;;;1.13;;
61709;SDS011;47633;51.494;5.386;2022-07-23T10:49:31;5.28;;;1.50;;
61709;SDS011;47633;51.494;5.386;2022-07-23T10:54:38;2.50;;;1.17;;
61709;SDS011;47633;51.494;5.386;2022-07-23T10:57:16;2.95;;;1.20;;
61709;SDS011;47633;51.494;5.386;2022-07-23T11:02:40;4.05;;;1.45;;
61709;SDS011;47633;51.494;5.386;2022-07-23T11:05:08;2.60;;;1.20;;
61709;SDS011;47633;51.494;5.386;2022-07-23T11:07:35;2.65;;;1.15;;
61709;SDS011;47633;51.494;5.386;2022-07-23T11:10:02;2.80;;;1.30;;
61709;SDS011;47633;51.494;5.386;2022-07-23T11:17:32;3.55;;;1.42;;
61709;SDS011;47633;51.494;5.386;2022-07-23T11:25:03;2.70;;;1.23;;
61709;SDS011;47633;51.494;5.386;2022-07-23T11:30:13;3.80;;;1.20;;
61709;SDS011;47633;51.494;5.386;2022-07-23T11:35:34;3.78;;;1.40;;
61709;SDS011;47633;51.494;5.386;2022-07-23T11:38:04;3.95;;;1.20;;
61709;SDS011;47633;51.494;5.386;2022-07-23T11:40:31;4.07;;;1.38;;
61709;SDS011;47633;51.494;5.386;2022-07-23T11:42:58;3.40;;;1.20;;
61709;SDS011;47633;51.494;5.386;2022-07-23T11:48:02;3.00;;;1.20;;
61709;SDS011;47633;51.494;5.386;2022-07-23T11:50:28;4.13;;;1.48;;
61709;SDS011;47633;51.494;5.386;2022-07-23T11:52:54;4.20;;;1.40;;
61709;SDS011;47633;51.494;5.386;2022-07-23T11:55:19;2.63;;;1.10;;
61709;SDS011;47633;51.494;5.386;2022-07-23T11:57:45;3.08;;;1.33;;
61709;SDS011;47633;51.494;5.386;2022-07-23T12:00:15;2.25;;;1.17;;
61709;SDS011;47633;51.494;5.386;2022-07-23T12:02:43;3.22;;;1.30;;
61709;SDS011;47633;51.494;5.386;2022-07-23T12:05:11;2.15;;;1.10;;
61709;SDS011;47633;51.494;5.386;2022-07-23T12:07:45;2.25;;;1.10;;
61709;SDS011;47633;51.494;5.386;2022-07-23T12:12:45;2.47;;;1.25;;
61709;SDS011;47633;51.494;5.386;2022-07-23T12:15:25;4.18;;;1.40;;
61709;SDS011;47633;51.494;5.386;2022-07-23T12:17:57;2.53;;;1.30;;
61709;SDS011;47633;51.494;5.386;2022-07-23T12:20:24;3.67;;;1.40;;
61709;SDS011;47633;51.494;5.386;2022-07-23T12:22:52;2.13;;;1.08;;
61709;SDS011;47633;51.494;5.386;2022-07-23T12:25:21;3.88;;;1.40;;
61709;SDS011;47633;51.494;5.386;2022-07-23T12:27:58;1.98;;;1.13;;
61709;SDS011;47633;51.494;5.386;2022-07-23T12:30:25;2.70;;;1.10;;
61709;SDS011;47633;51.494;5.386;2022-07-23T12:32:54;3.85;;;1.52;;
61709;SDS011;47633;51.494;5.386;2022-07-23T12:35:29;2.08;;;1.00;;
61709;SDS011;47633;51.494;5.386;2022-07-23T12:38:01;3.25;;;1.20;;
61709;SDS011;47633;51.494;5.386;2022-07-23T12:40:30;3.30;;;1.40;;
61709;SDS011;47633;51.494;5.386;2022-07-23T12:42:57;2.25;;;1.10;;
61709;SDS011;47633;51.494;5.386;2022-07-23T12:45:28;2.92;;;1.30;;
61709;SDS011;47633;51.494;5.386;2022-07-23T12:48:18;2.67;;;1.20;;
61709;SDS011;47633;51.494;5.386;2022-07-23T12:53:18;8.32;;;1.30;;
61709;SDS011;47633;51.494;5.386;2022-07-23T12:56:01;1.98;;;1.20;;
61709;SDS011;47633;51.494;5.386;2022-07-23T13:06:37;3.38;;;1.25;;
61709;SDS011;47633;51.494;5.386;2022-07-23T13:09:03;3.20;;;1.17;;
61709;SDS011;47633;51.494;5.386;2022-07-23T13:11:30;4.10;;;1.33;;
61709;SDS011;47633;51.494;5.386;2022-07-23T13:13:56;2.50;;;1.10;;
61709;SDS011;47633;51.494;5.386;2022-07-23T13:16:24;2.30;;;1.20;;
61709;SDS011;47633;51.494;5.386;2022-07-23T13:18:50;4.50;;;1.23;;
61709;SDS011;47633;51.494;5.386;2022-07-23T13:21:17;2.42;;;1.30;;
61709;SDS011;47633;51.494;5.386;2022-07-23T13:23:43;1.75;;;1.00;;
61709;SDS011;47633;51.494;5.386;2022-07-23T13:26:08;2.92;;;1.50;;
61709;SDS011;47633;51.494;5.386;2022-07-23T13:28:33;2.83;;;1.23;;
61709;SDS011;47633;51.494;5.386;2022-07-23T13:30:59;3.95;;;1.20;;
61709;SDS011;47633;51.494;5.386;2022-07-23T13:33:24;5.00;;;1.40;;
61709;SDS011;47633;51.494;5.386;2022-07-23T13:35:50;3.92;;;1.63;;
61709;SDS011;47633;51.494;5.386;2022-07-23T13:38:17;2.35;;;1.13;;
61709;SDS011;47633;51.494;5.386;2022-07-23T13:40:46;2.78;;;1.25;;
61709;SDS011;47633;51.494;5.386;2022-07-23T13:43:15;2.90;;;1.40;;
61709;SDS011;47633;51.494;5.386;2022-07-23T13:45:42;3.58;;;1.45;;
61709;SDS011;47633;51.494;5.386;2022-07-23T13:48:09;2.60;;;1.23;;
61709;SDS011;47633;51.494;5.386;2022-07-23T13:50:36;3.80;;;1.30;;
61709;SDS011;47633;51.494;5.386;2022-07-23T13:53:06;2.28;;;1.13;;
61709;SDS011;47633;51.494;5.386;2022-07-23T13:58:05;3.35;;;1.42;;
61709;SDS011;47633;51.494;5.386;2022-07-23T14:00:30;2.92;;;1.35;;
61709;SDS011;47633;51.494;5.386;2022-07-23T14:02:57;2.63;;;1.30;;
61709;SDS011;47633;51.494;5.386;2022-07-23T14:05:25;13.68;;;1.67;;
61709;SDS011;47633;51.494;5.386;2022-07-23T14:07:51;2.53;;;1.40;;
61709;SDS011;47633;51.494;5.386;2022-07-23T14:10:17;2.55;;;1.20;;
61709;SDS011;47633;51.494;5.386;2022-07-23T14:12:44;2.50;;;1.30;;
61709;SDS011;47633;51.494;5.386;2022-07-23T14:15:10;2.28;;;0.98;;
61709;SDS011;47633;51.494;5.386;2022-07-23T14:17:36;3.30;;;1.30;;
61709;SDS011;47633;51.494;5.386;2022-07-23T14:20:03;3.22;;;1.50;;
61709;SDS011;47633;51.494;5.386;2022-07-23T14:22:30;3.65;;;1.30;;
61709;SDS011;47633;51.494;5.386;2022-07-23T14:24:55;3.33;;;1.27;;
61709;SDS011;47633;51.494;5.386;2022-07-23T14:27:22;2.75;;;1.40;;
61709;SDS011;47633;51.494;5.386;2022-07-23T14:29:47;2.35;;;1.30;;
61709;SDS011;47633;51.494;5.386;2022-07-23T14:32:13;3.38;;;1.50;;
61709;SDS011;47633;51.494;5.386;2022-07-23T14:34:38;2.60;;;1.38;;
61709;SDS011;47633;51.494;5.386;2022-07-23T14:37:03;2.58;;;1.30;;
61709;SDS011;47633;51.494;5.386;2022-07-23T14:39:29;2.92;;;1.48;;
61709;SDS011;47633;51.494;5.386;2022-07-23T14:41:54;3.30;;;1.30;;
61709;SDS011;47633;51.494;5.386;2022-07-23T14:44:20;3.42;;;1.40;;
61709;SDS011;47633;51.494;5.386;2022-07-23T14:46:45;3.03;;;1.40;;
61709;SDS011;47633;51.494;5.386;2022-07-23T14:49:10;2.03;;;1.25;;
61709;SDS011;47633;51.494;5.386;2022-07-23T14:51:38;3.05;;;1.60;;
61709;SDS011;47633;51.494;5.386;2022-07-23T14:54:05;2.60;;;1.35;;
61709;SDS011;47633;51.494;5.386;2022-07-23T14:56:31;2.53;;;1.38;;
61709;SDS011;47633;51.494;5.386;2022-07-23T14:58:58;2.38;;;1.35;;
61709;SDS011;47633;51.494;5.386;2022-07-23T15:01:24;3.80;;;1.30;;
61709;SDS011;47633;51.494;5.386;2022-07-23T15:03:49;2.85;;;1.50;;
61709;SDS011;47633;51.494;5.386;2022-07-23T15:06:15;2.60;;;1.20;;
61709;SDS011;47633;51.494;5.386;2022-07-23T15:08:41;3.92;;;1.55;;
61709;SDS011;47633;51.494;5.386;2022-07-23T15:11:07;3.20;;;1.57;;
61709;SDS011;47633;51.494;5.386;2022-07-23T15:13:34;3.05;;;1.33;;
61709;SDS011;47633;51.494;5.386;2022-07-23T15:16:03;3.30;;;1.65;;
61709;SDS011;47633;51.494;5.386;2022-07-23T15:18:29;3.70;;;1.45;;
61709;SDS011;47633;51.494;5.386;2022-07-23T15:20:55;3.15;;;1.35;;
61709;SDS011;47633;51.494;5.386;2022-07-23T15:23:20;3.97;;;1.40;;
61709;SDS011;47633;51.494;5.386;2022-07-23T15:25:45;3.33;;;1.13;;
61709;SDS011;47633;51.494;5.386;2022-07-23T15:28:11;3.78;;;1.67;;
61709;SDS011;47633;51.494;5.386;2022-07-23T15:30:36;2.57;;;1.33;;
61709;SDS011;47633;51.494;5.386;2022-07-23T15:33:02;6.20;;;3.25;;
61709;SDS011;47633;51.494;5.386;2022-07-23T15:35:27;26.00;;;16.42;;
61709;SDS011;47633;51.494;5.386;2022-07-23T15:37:53;43.28;;;25.00;;
61709;SDS011;47633;51.494;5.386;2022-07-23T15:40:18;45.43;;;28.03;;
61709;SDS011;47633;51.494;5.386;2022-07-23T15:42:43;46.77;;;27.27;;